sensor_id;sensor_type;location;lat;lon;timestamp;pressure;altitude;pressure_sealevel;temperature;humidity
62508;BME280;48556;51.972;4.624;2023-05-21T00:00:43;58805.44;;;-146.23;100.00
62508;BME280;48556;51.972;4.624;2023-05-21T00:03:09;58805.44;;;-146.23;100.00
62508;BME280;48556;51.972;4.624;2023-05-21T00:05:41;58805.44;;;-146.23;100.00
62508;BME280;48556;51.972;4.624;2023-05-21T00:08:07;58805.44;;;-146.23;100.00
62508;BME280;48556;51.972;4.624;2023-05-21T00:10:33;58805.44;;;-146.23;100.00
62508;BME280;48556;51.972;4.624;2023-05-21T00:12:58;58805.44;;;-146.23;100.00
62508;BME280;48556;51.972;4.624;2023-05-21T00:15:24;58805.44;;;-146.23;100.00
62508;BME280;48556;51.972;4.624;2023-05-21T00:17:50;58805.44;;;-146.23;100.00
62508;BME280;48556;51.972;4.624;2023-05-21T00:20:15;58805.44;;;-146.23;100.00
62508;BME280;48556;51.972;4.624;2023-05-21T00:22:41;58805.44;;;-146.23;100.00
62508;BME280;48556;51.972;4.624;2023-05-21T00:25:09;58805.44;;;-146.23;100.00
62508;BME280;48556;51.972;4.624;2023-05-21T00:27:35;58805.44;;;-146.23;100.00
62508;BME280;48556;51.972;4.624;2023-05-21T00:30:02;58805.44;;;-146.23;100.00
62508;BME280;48556;51.972;4.624;2023-05-21T00:32:27;58805.44;;;-146.23;100.00
62508;BME280;48556;51.972;4.624;2023-05-21T00:34:53;58805.44;;;-146.23;100.00
62508;BME280;48556;51.972;4.624;2023-05-21T00:37:18;58805.44;;;-146.23;100.00
62508;BME280;48556;51.972;4.624;2023-05-21T00:39:45;58805.44;;;-146.23;100.00
62508;BME280;48556;51.972;4.624;2023-05-21T00:42:11;58805.44;;;-146.23;100.00
62508;BME280;48556;51.972;4.624;2023-05-21T00:44:37;58805.44;;;-146.23;100.00
62508;BME280;48556;51.972;4.624;2023-05-21T00:47:04;58805.44;;;-146.23;100.00
62508;BME280;48556;51.972;4.624;2023-05-21T00:49:31;58805.44;;;-146.23;100.00
62508;BME280;48556;51.972;4.624;2023-05-21T00:51:57;58805.44;;;-146.23;100.00
62508;BME280;48556;51.972;4.624;2023-05-21T00:54:26;58805.44;;;-146.23;100.00
62508;BME280;48556;51.972;4.624;2023-05-21T00:56:53;58805.44;;;-146.23;100.00
62508;BME280;48556;51.972;4.624;2023-05-21T00:59:20;58805.44;;;-146.23;100.00
62508;BME280;48556;51.972;4.624;2023-05-21T01:01:46;58805.44;;;-146.23;100.00
62508;BME280;48556;51.972;4.624;2023-05-21T01:04:18;58805.44;;;-146.23;100.00
62508;BME280;48556;51.972;4.624;2023-05-21T01:06:44;58805.44;;;-146.23;100.00
62508;BME280;48556;51.972;4.624;2023-05-21T01:09:10;58805.44;;;-146.23;100.00
62508;BME280;48556;51.972;4.624;2023-05-21T01:11:56;58805.44;;;-146.23;100.00
62508;BME280;48556;51.972;4.624;2023-05-21T01:14:23;58805.44;;;-146.23;100.00
62508;BME280;48556;51.972;4.624;2023-05-21T01:16:49;58805.44;;;-146.23;100.00
62508;BME280;48556;51.972;4.624;2023-05-21T01:19:20;58805.44;;;-146.23;100.00
62508;BME280;48556;51.972;4.624;2023-05-21T01:21:51;58805.44;;;-146.23;100.00
62508;BME280;48556;51.972;4.624;2023-05-21T01:24:18;58805.44;;;-146.23;100.00
62508;BME280;48556;51.972;4.624;2023-05-21T01:26:44;58805.44;;;-146.23;100.00
62508;BME280;48556;51.972;4.624;2023-05-21T01:29:12;58805.44;;;-146.23;100.00
62508;BME280;48556;51.972;4.624;2023-05-21T01:31:47;58805.44;;;-146.23;100.00
62508;BME280;48556;51.972;4.624;2023-05-21T01:34:22;58805.44;;;-146.23;100.00
62508;BME280;48556;51.972;4.624;2023-05-21T01:37:02;58805.44;;;-146.23;100.00
62508;BME280;48556;51.972;4.624;2023-05-21T01:39:37;58805.44;;;-146.23;100.00
62508;BME280;48556;51.972;4.624;2023-05-21T01:42:06;58805.44;;;-146.23;100.00
62508;BME280;48556;51.972;4.624;2023-05-21T01:44:35;58805.44;;;-146.23;100.00
62508;BME280;48556;51.972;4.624;2023-05-21T01:47:03;58805.44;;;-146.23;100.00
62508;BME280;48556;51.972;4.624;2023-05-21T01:49:29;58805.44;;;-146.23;100.00
62508;BME280;48556;51.972;4.624;2023-05-21T01:51:56;58805.44;;;-146.23;100.00
62508;BME280;48556;51.972;4.624;2023-05-21T01:54:21;58805.44;;;-146.23;100.00
62508;BME280;48556;51.972;4.624;2023-05-21T01:56:48;58805.44;;;-146.23;100.00
62508;BME280;48556;51.972;4.624;2023-05-21T01:59:16;58805.44;;;-146.23;100.00
62508;BME280;48556;51.972;4.624;2023-05-21T02:01:42;58805.44;;;-146.23;100.00
62508;BME280;48556;51.972;4.624;2023-05-21T02:04:08;58805.44;;;-146.23;100.00
62508;BME280;48556;51.972;4.624;2023-05-21T02:06:33;58805.44;;;-146.23;100.00
62508;BME280;48556;51.972;4.624;2023-05-21T02:09:00;58805.44;;;-146.23;100.00
62508;BME280;48556;51.972;4.624;2023-05-21T02:11:26;58805.44;;;-146.23;100.00
62508;BME280;48556;51.972;4.624;2023-05-21T02:13:52;58805.44;;;-146.23;100.00
62508;BME280;48556;51.972;4.624;2023-05-21T02:16:19;58805.44;;;-146.23;100.00
62508;BME280;48556;51.972;4.624;2023-05-21T02:18:46;58805.44;;;-146.23;100.00
62508;BME280;48556;51.972;4.624;2023-05-21T02:21:15;58805.44;;;-146.23;100.00
62508;BME280;48556;51.972;4.624;2023-05-21T02:23:41;58805.44;;;-146.23;100.00
62508;BME280;48556;51.972;4.624;2023-05-21T02:26:07;58805.44;;;-146.23;100.00
62508;BME280;48556;51.972;4.624;2023-05-21T02:28:33;58805.44;;;-146.23;100.00
62508;BME280;48556;51.972;4.624;2023-05-21T02:30:58;58805.44;;;-146.23;100.00
62508;BME280;48556;51.972;4.624;2023-05-21T02:33:25;58805.44;;;-146.23;100.00
62508;BME280;48556;51.972;4.624;2023-05-21T02:35:50;58805.44;;;-146.23;100.00
62508;BME280;48556;51.972;4.624;2023-05-21T02:38:16;58805.44;;;-146.23;100.00
62508;BME280;48556;51.972;4.624;2023-05-21T02:40:46;58805.44;;;-146.23;100.00
62508;BME280;48556;51.972;4.624;2023-05-21T02:43:12;58805.44;;;-146.23;100.00
62508;BME280;48556;51.972;4.624;2023-05-21T02:45:37;58805.44;;;-146.23;100.00
62508;BME280;48556;51.972;4.624;2023-05-21T02:48:03;58805.44;;;-146.23;100.00
62508;BME280;48556;51.972;4.624;2023-05-21T02:50:28;58805.44;;;-146.23;100.00
62508;BME280;48556;51.972;4.624;2023-05-21T02:52:54;58805.44;;;-146.23;100.00
62508;BME280;48556;51.972;4.624;2023-05-21T02:55:20;58805.44;;;-146.23;100.00
62508;BME280;48556;51.972;4.624;2023-05-21T02:57:46;58805.44;;;-146.23;100.00
62508;BME280;48556;51.972;4.624;2023-05-21T03:00:12;58805.44;;;-146.23;100.00
62508;BME280;48556;51.972;4.624;2023-05-21T03:02:39;58805.44;;;-146.23;100.00
62508;BME280;48556;51.972;4.624;2023-05-21T03:05:05;58805.44;;;-146.23;100.00
62508;BME280;48556;51.972;4.624;2023-05-21T03:07:30;58805.44;;;-146.23;100.00
62508;BME280;48556;51.972;4.624;2023-05-21T03:09:56;58805.44;;;-146.23;100.00
62508;BME280;48556;51.972;4.624;2023-05-21T03:12:22;58805.44;;;-146.23;100.00
62508;BME280;48556;51.972;4.624;2023-05-21T03:14:48;58805.44;;;-146.23;100.00
62508;BME280;48556;51.972;4.624;2023-05-21T03:17:16;58805.44;;;-146.23;100.00
62508;BME280;48556;51.972;4.624;2023-05-21T03:19:43;58805.44;;;-146.23;100.00
62508;BME280;48556;51.972;4.624;2023-05-21T03:22:09;58805.44;;;-146.23;100.00
62508;BME280;48556;51.972;4.624;2023-05-21T03:24:37;58805.44;;;-146.23;100.00
62508;BME280;48556;51.972;4.624;2023-05-21T03:27:02;58805.44;;;-146.23;100.00
62508;BME280;48556;51.972;4.624;2023-05-21T03:29:30;58805.44;;;-146.23;100.00
62508;BME280;48556;51.972;4.624;2023-05-21T03:31:56;58805.44;;;-146.23;100.00
62508;BME280;48556;51.972;4.624;2023-05-21T03:34:22;58805.44;;;-146.23;100.00
62508;BME280;48556;51.972;4.624;2023-05-21T03:36:48;58805.44;;;-146.23;100.00
62508;BME280;48556;51.972;4.624;2023-05-21T03:39:14;58805.44;;;-146.23;100.00
62508;BME280;48556;51.972;4.624;2023-05-21T03:41:39;58805.44;;;-146.23;100.00
62508;BME280;48556;51.972;4.624;2023-05-21T03:44:05;58805.44;;;-146.23;100.00
62508;BME280;48556;51.972;4.624;2023-05-21T03:46:31;58805.44;;;-146.23;100.00
62508;BME280;48556;51.972;4.624;2023-05-21T03:48:56;58805.44;;;-146.23;100.00
62508;BME280;48556;51.972;4.624;2023-05-21T03:51:24;58805.44;;;-146.23;100.00
62508;BME280;48556;51.972;4.624;2023-05-21T03:53:50;58805.44;;;-146.23;100.00
62508;BME280;48556;51.972;4.624;2023-05-21T03:56:16;58805.44;;;-146.23;100.00
62508;BME280;48556;51.972;4.624;2023-05-21T03:58:42;58805.44;;;-146.23;100.00
62508;BME280;48556;51.972;4.624;2023-05-21T04:01:07;58805.44;;;-146.23;100.00
62508;BME280;48556;51.972;4.624;2023-05-21T04:03:34;58805.44;;;-146.23;100.00
62508;BME280;48556;51.972;4.624;2023-05-21T04:06:03;58805.44;;;-146.23;100.00
62508;BME280;48556;51.972;4.624;2023-05-21T04:08:28;58805.44;;;-146.23;100.00
62508;BME280;48556;51.972;4.624;2023-05-21T04:10:54;58805.44;;;-146.23;100.00
62508;BME280;48556;51.972;4.624;2023-05-21T04:13:19;58805.44;;;-146.23;100.00
62508;BME280;48556;51.972;4.624;2023-05-21T04:15:45;58805.44;;;-146.23;100.00
62508;BME280;48556;51.972;4.624;2023-05-21T04:18:12;58805.44;;;-146.23;100.00
62508;BME280;48556;51.972;4.624;2023-05-21T04:20:41;58805.44;;;-146.23;100.00
62508;BME280;48556;51.972;4.624;2023-05-21T04:23:07;58805.44;;;-146.23;100.00
62508;BME280;48556;51.972;4.624;2023-05-21T04:25:33;58805.44;;;-146.23;100.00
62508;BME280;48556;51.972;4.624;2023-05-21T04:28:06;76500.84;;;-146.23;48.01
62508;BME280;48556;51.972;4.624;2023-05-21T04:30:31;76432.56;;;-146.23;47.32
62508;BME280;48556;51.972;4.624;2023-05-21T04:33:01;76452.63;;;-146.23;47.35
62508;BME280;48556;51.972;4.624;2023-05-21T04:35:27;76392.38;;;-146.23;46.34
62508;BME280;48556;51.972;4.624;2023-05-21T04:37:52;76392.38;;;-146.23;46.14
62508;BME280;48556;51.972;4.624;2023-05-21T04:40:19;76412.47;;;-146.23;46.60
62508;BME280;48556;51.972;4.624;2023-05-21T04:42:49;76400.41;;;-146.23;46.44
62508;BME280;48556;51.972;4.624;2023-05-21T04:45:15;76474.72;;;-146.23;47.45
62508;BME280;48556;51.972;4.624;2023-05-21T04:47:44;76436.56;;;-146.23;47.57
62508;BME280;48556;51.972;4.624;2023-05-21T04:50:10;76402.44;;;-146.23;46.87
62508;BME280;48556;51.972;4.624;2023-05-21T04:52:37;76366.28;;;-146.23;46.65
62508;BME280;48556;51.972;4.624;2023-05-21T04:55:05;76388.38;;;-146.23;47.95
62508;BME280;48556;51.972;4.624;2023-05-21T04:57:31;76394.41;;;-146.23;48.28
62508;BME280;48556;51.972;4.624;2023-05-21T04:59:56;76402.44;;;-146.23;49.04
62508;BME280;48556;51.972;4.624;2023-05-21T05:02:22;76448.63;;;-146.23;50.04
62508;BME280;48556;51.972;4.624;2023-05-21T05:04:47;76432.56;;;-146.23;50.17
62508;BME280;48556;51.972;4.624;2023-05-21T05:07:13;76408.44;;;-146.23;49.88
62508;BME280;48556;51.972;4.624;2023-05-21T05:09:39;76394.41;;;-146.23;49.69
62508;BME280;48556;51.972;4.624;2023-05-21T05:12:05;76364.28;;;-146.23;49.30
62508;BME280;48556;51.972;4.624;2023-05-21T05:14:31;76412.47;;;-146.23;50.08
62508;BME280;48556;51.972;4.624;2023-05-21T05:16:57;76410.47;;;-146.23;50.14
62508;BME280;48556;51.972;4.624;2023-05-21T05:19:25;76382.34;;;-146.23;49.71
62508;BME280;48556;51.972;4.624;2023-05-21T05:21:51;76384.34;;;-146.23;49.66
62508;BME280;48556;51.972;4.624;2023-05-21T05:24:17;76362.25;;;-146.23;49.52
62508;BME280;48556;51.972;4.624;2023-05-21T05:26:43;76332.13;;;-146.23;48.88
62508;BME280;48556;51.972;4.624;2023-05-21T05:29:08;76418.50;;;-146.23;49.82
62508;BME280;48556;51.972;4.624;2023-05-21T05:31:34;76376.31;;;-146.23;49.68
62508;BME280;48556;51.972;4.624;2023-05-21T05:33:59;76360.25;;;-146.23;49.22
62508;BME280;48556;51.972;4.624;2023-05-21T05:36:25;76382.34;;;-146.23;49.66
62508;BME280;48556;51.972;4.624;2023-05-21T05:38:51;76368.28;;;-146.23;49.54
62508;BME280;48556;51.972;4.624;2023-05-21T05:41:17;76404.44;;;-146.23;50.29
62508;BME280;48556;51.972;4.624;2023-05-21T05:43:42;76390.38;;;-146.23;50.14
62508;BME280;48556;51.972;4.624;2023-05-21T05:46:08;76404.44;;;-146.23;50.45
62508;BME280;48556;51.972;4.624;2023-05-21T05:48:33;76432.56;;;-146.23;50.83
62508;BME280;48556;51.972;4.624;2023-05-21T05:50:59;76448.63;;;-146.23;51.16
62508;BME280;48556;51.972;4.624;2023-05-21T05:53:25;76372.31;;;-146.23;50.02
62508;BME280;48556;51.972;4.624;2023-05-21T05:55:51;76360.25;;;-146.23;49.83
62508;BME280;48556;51.972;4.624;2023-05-21T05:58:17;76412.47;;;-146.23;50.40
62508;BME280;48556;51.972;4.624;2023-05-21T06:00:42;76412.47;;;-146.23;50.88
62508;BME280;48556;51.972;4.624;2023-05-21T06:03:07;76376.31;;;-146.23;50.23
62508;BME280;48556;51.972;4.624;2023-05-21T06:05:33;76352.22;;;-146.23;49.42
62508;BME280;48556;51.972;4.624;2023-05-21T06:07:58;76398.41;;;-146.23;49.95
62508;BME280;48556;51.972;4.624;2023-05-21T06:10:24;76382.34;;;-146.23;50.08
62508;BME280;48556;51.972;4.624;2023-05-21T06:12:50;76344.19;;;-146.23;49.77
62508;BME280;48556;51.972;4.624;2023-05-21T06:15:15;76368.28;;;-146.23;50.05
62508;BME280;48556;51.972;4.624;2023-05-21T06:17:43;76326.13;;;-146.23;49.64
62508;BME280;48556;51.972;4.624;2023-05-21T06:20:09;76336.16;;;-146.23;49.72
62508;BME280;48556;51.972;4.624;2023-05-21T06:22:36;76376.31;;;-146.23;50.21
62508;BME280;48556;51.972;4.624;2023-05-21T06:25:01;76326.13;;;-146.23;49.80
62508;BME280;48556;51.972;4.624;2023-05-21T06:27:27;76314.06;;;-146.23;49.45
62508;BME280;48556;51.972;4.624;2023-05-21T06:29:52;76356.25;;;-146.23;50.32
62508;BME280;48556;51.972;4.624;2023-05-21T06:32:18;76310.06;;;-146.23;49.55
62508;BME280;48556;51.972;4.624;2023-05-21T06:34:45;76348.22;;;-146.23;50.35
62508;BME280;48556;51.972;4.624;2023-05-21T06:37:11;76330.13;;;-146.23;50.22
62508;BME280;48556;51.972;4.624;2023-05-21T06:39:37;76279.94;;;-146.23;49.20
62508;BME280;48556;51.972;4.624;2023-05-21T06:42:02;76334.16;;;-146.23;50.07
62508;BME280;48556;51.972;4.624;2023-05-21T06:44:28;76336.16;;;-146.23;50.45
62508;BME280;48556;51.972;4.624;2023-05-21T06:46:53;76364.28;;;-146.23;50.85
62508;BME280;48556;51.972;4.624;2023-05-21T06:49:19;76342.19;;;-146.23;50.65
62508;BME280;48556;51.972;4.624;2023-05-21T06:51:44;76324.09;;;-146.23;50.42
62508;BME280;48556;51.972;4.624;2023-05-21T06:54:10;76314.06;;;-146.23;50.05
62508;BME280;48556;51.972;4.624;2023-05-21T06:56:35;76322.09;;;-146.23;49.99
62508;BME280;48556;51.972;4.624;2023-05-21T06:59:01;76320.09;;;-146.23;50.27
62508;BME280;48556;51.972;4.624;2023-05-21T07:01:26;76261.84;;;-146.23;49.03
62508;BME280;48556;51.972;4.624;2023-05-21T07:03:52;76279.94;;;-146.23;49.28
62508;BME280;48556;51.972;4.624;2023-05-21T07:06:18;76267.88;;;-146.23;49.00
62508;BME280;48556;51.972;4.624;2023-05-21T07:08:44;76243.78;;;-146.23;48.47
62508;BME280;48556;51.972;4.624;2023-05-21T07:11:10;76271.91;;;-146.23;48.78
62508;BME280;48556;51.972;4.624;2023-05-21T07:13:35;76235.75;;;-146.23;48.60
62508;BME280;48556;51.972;4.624;2023-05-21T07:16:01;76257.84;;;-146.23;48.55
62508;BME280;48556;51.972;4.624;2023-05-21T07:18:27;76261.84;;;-146.23;48.27
62508;BME280;48556;51.972;4.624;2023-05-21T07:20:52;76211.66;;;-146.23;47.63
62508;BME280;48556;51.972;4.624;2023-05-21T07:23:18;76251.81;;;-146.23;48.22
62508;BME280;48556;51.972;4.624;2023-05-21T07:25:45;76243.78;;;-146.23;47.96
62508;BME280;48556;51.972;4.624;2023-05-21T07:28:14;76245.78;;;-146.23;48.05
62508;BME280;48556;51.972;4.624;2023-05-21T07:30:40;76167.47;;;-146.23;47.18
62508;BME280;48556;51.972;4.624;2023-05-21T07:33:05;76173.50;;;-146.23;46.70
62508;BME280;48556;51.972;4.624;2023-05-21T07:35:31;76219.69;;;-146.23;47.62
62508;BME280;48556;51.972;4.624;2023-05-21T07:37:56;76247.78;;;-146.23;47.91
62508;BME280;48556;51.972;4.624;2023-05-21T07:40:22;76237.75;;;-146.23;48.10
62508;BME280;48556;51.972;4.624;2023-05-21T07:42:47;76215.66;;;-146.23;47.63
62508;BME280;48556;51.972;4.624;2023-05-21T07:45:13;76227.72;;;-146.23;48.14
62508;BME280;48556;51.972;4.624;2023-05-21T07:47:38;76219.69;;;-146.23;47.99
62508;BME280;48556;51.972;4.624;2023-05-21T07:50:05;76187.56;;;-146.23;47.81
62508;BME280;48556;51.972;4.624;2023-05-21T07:52:30;76151.41;;;-146.23;46.83
62508;BME280;48556;51.972;4.624;2023-05-21T07:54:56;76145.38;;;-146.23;46.70
62508;BME280;48556;51.972;4.624;2023-05-21T07:57:21;76159.44;;;-146.23;46.80
62508;BME280;48556;51.972;4.624;2023-05-21T07:59:47;76127.31;;;-146.23;46.60
62508;BME280;48556;51.972;4.624;2023-05-21T08:02:13;76119.28;;;-146.23;46.01
62508;BME280;48556;51.972;4.624;2023-05-21T08:04:38;76125.31;;;-146.23;45.93
62508;BME280;48556;51.972;4.624;2023-05-21T08:07:04;76171.50;;;-146.23;46.75
62508;BME280;48556;51.972;4.624;2023-05-21T08:09:30;76119.28;;;-146.23;46.13
62508;BME280;48556;51.972;4.624;2023-05-21T08:11:56;76097.19;;;-146.23;45.73
62508;BME280;48556;51.972;4.624;2023-05-21T08:14:22;76075.09;;;-146.23;45.08
62508;BME280;48556;51.972;4.624;2023-05-21T08:16:47;76087.16;;;-146.23;44.88
62508;BME280;48556;51.972;4.624;2023-05-21T08:19:13;76107.22;;;-146.23;45.19
62508;BME280;48556;51.972;4.624;2023-05-21T08:21:38;76105.22;;;-146.23;45.27
62508;BME280;48556;51.972;4.624;2023-05-21T08:24:05;76113.25;;;-146.23;45.08
62508;BME280;48556;51.972;4.624;2023-05-21T08:26:31;76131.31;;;-146.23;44.87
62508;BME280;48556;51.972;4.624;2023-05-21T08:28:56;76127.31;;;-146.23;45.39
62508;BME280;48556;51.972;4.624;2023-05-21T08:31:22;76131.31;;;-146.23;45.26
62508;BME280;48556;51.972;4.624;2023-05-21T08:33:52;76153.41;;;-146.23;45.54
62508;BME280;48556;51.972;4.624;2023-05-21T08:36:18;76135.34;;;-146.23;44.90
62508;BME280;48556;51.972;4.624;2023-05-21T08:38:44;76085.13;;;-146.23;44.75
62508;BME280;48556;51.972;4.624;2023-05-21T08:41:11;76075.09;;;-146.23;44.46
62508;BME280;48556;51.972;4.624;2023-05-21T08:43:37;76091.16;;;-146.23;44.14
62508;BME280;48556;51.972;4.624;2023-05-21T08:46:05;76079.13;;;-146.23;43.91
62508;BME280;48556;51.972;4.624;2023-05-21T08:48:31;76085.13;;;-146.23;44.05
62508;BME280;48556;51.972;4.624;2023-05-21T08:50:58;76057.03;;;-146.23;43.49
62508;BME280;48556;51.972;4.624;2023-05-21T08:53:25;76059.03;;;-146.23;43.68
62508;BME280;48556;51.972;4.624;2023-05-21T08:55:54;76032.94;;;-146.23;43.71
62508;BME280;48556;51.972;4.624;2023-05-21T08:58:21;76002.81;;;-146.23;43.53
62508;BME280;48556;51.972;4.624;2023-05-21T09:00:47;75990.75;;;-146.23;42.34
62508;BME280;48556;51.972;4.624;2023-05-21T09:03:14;76026.91;;;-146.23;42.40
62508;BME280;48556;51.972;4.624;2023-05-21T09:05:41;76012.84;;;-146.23;42.25
62508;BME280;48556;51.972;4.624;2023-05-21T09:10:51;76006.81;;;-146.23;41.93
62508;BME280;48556;51.972;4.624;2023-05-21T09:13:18;75990.75;;;-146.23;41.82
62508;BME280;48556;51.972;4.624;2023-05-21T09:15:45;76024.91;;;-146.23;42.67
62508;BME280;48556;51.972;4.624;2023-05-21T09:18:13;75998.78;;;-146.23;42.39
62508;BME280;48556;51.972;4.624;2023-05-21T09:20:39;75976.69;;;-146.23;41.68
62508;BME280;48556;51.972;4.624;2023-05-21T09:23:06;75994.78;;;-146.23;41.97
62508;BME280;48556;51.972;4.624;2023-05-21T09:25:37;75994.78;;;-146.23;41.64
62508;BME280;48556;51.972;4.624;2023-05-21T09:28:10;75934.53;;;-146.23;41.16
62508;BME280;48556;51.972;4.624;2023-05-21T09:30:36;75936.53;;;-146.23;41.04
62508;BME280;48556;51.972;4.624;2023-05-21T09:33:01;75934.53;;;-146.23;40.25
62508;BME280;48556;51.972;4.624;2023-05-21T09:35:47;75902.41;;;-146.23;40.11
62508;BME280;48556;51.972;4.624;2023-05-21T09:38:12;75882.31;;;-146.23;39.99
62508;BME280;48556;51.972;4.624;2023-05-21T09:40:43;75884.34;;;-146.23;39.76
62508;BME280;48556;51.972;4.624;2023-05-21T09:43:13;75874.28;;;-146.23;39.69
62508;BME280;48556;51.972;4.624;2023-05-21T09:45:50;75848.19;;;-146.23;39.35
62508;BME280;48556;51.972;4.624;2023-05-21T09:48:16;75850.19;;;-146.23;39.32
62508;BME280;48556;51.972;4.624;2023-05-21T09:50:41;75850.19;;;-146.23;39.32
62508;BME280;48556;51.972;4.624;2023-05-21T09:53:11;75834.13;;;-146.23;39.28
62508;BME280;48556;51.972;4.624;2023-05-21T09:55:40;75826.09;;;-146.23;39.22
62508;BME280;48556;51.972;4.624;2023-05-21T09:58:07;75838.16;;;-146.23;39.08
62508;BME280;48556;51.972;4.624;2023-05-21T10:00:33;75864.25;;;-146.23;39.80
62508;BME280;48556;51.972;4.624;2023-05-21T10:03:00;75842.16;;;-146.23;39.67
62508;BME280;48556;51.972;4.624;2023-05-21T10:05:28;75912.44;;;-146.23;40.00
62508;BME280;48556;51.972;4.624;2023-05-21T10:08:02;75892.38;;;-146.23;40.18
62508;BME280;48556;51.972;4.624;2023-05-21T10:10:29;75866.25;;;-146.23;39.38
62508;BME280;48556;51.972;4.624;2023-05-21T10:13:17;75882.31;;;-146.23;40.15
62508;BME280;48556;51.972;4.624;2023-05-21T10:15:48;75914.44;;;-146.23;40.43
62508;BME280;48556;51.972;4.624;2023-05-21T10:18:14;75902.41;;;-146.23;40.47
62508;BME280;48556;51.972;4.624;2023-05-21T10:20:43;75850.19;;;-146.23;39.74
62508;BME280;48556;51.972;4.624;2023-05-21T10:23:11;75892.38;;;-146.23;40.02
62508;BME280;48556;51.972;4.624;2023-05-21T10:25:37;75830.13;;;-146.23;39.66
62508;BME280;48556;51.972;4.624;2023-05-21T10:28:05;75826.09;;;-146.23;39.26
62508;BME280;48556;51.972;4.624;2023-05-21T10:30:31;75787.94;;;-146.23;38.82
62508;BME280;48556;51.972;4.624;2023-05-21T10:33:00;75802.00;;;-146.23;38.94
62508;BME280;48556;51.972;4.624;2023-05-21T10:35:26;75810.03;;;-146.23;38.93
62508;BME280;48556;51.972;4.624;2023-05-21T10:37:53;75834.13;;;-146.23;39.27
62508;BME280;48556;51.972;4.624;2023-05-21T10:40:18;75795.97;;;-146.23;39.25
62508;BME280;48556;51.972;4.624;2023-05-21T10:43:17;75800.00;;;-146.23;39.48
62508;BME280;48556;51.972;4.624;2023-05-21T11:00:15;75655.44;;;-146.23;37.01
62508;BME280;48556;51.972;4.624;2023-05-21T11:02:43;75589.16;;;-146.23;36.69
62508;BME280;48556;51.972;4.624;2023-05-21T11:05:09;75589.16;;;-146.23;37.09
62508;BME280;48556;51.972;4.624;2023-05-21T11:08:01;75518.88;;;-146.23;36.52
62508;BME280;48556;51.972;4.624;2023-05-21T11:13:28;75536.97;;;-146.23;35.74
62508;BME280;48556;51.972;4.624;2023-05-21T11:21:13;75585.16;;;-146.23;36.06
62508;BME280;48556;51.972;4.624;2023-05-21T11:24:00;75593.19;;;-146.23;36.24
62508;BME280;48556;51.972;4.624;2023-05-21T11:29:12;75581.13;;;-146.23;36.67
62508;BME280;48556;51.972;4.624;2023-05-21T11:31:44;75569.09;;;-146.23;36.16
62508;BME280;48556;51.972;4.624;2023-05-21T11:34:46;75577.13;;;-146.23;36.36
62508;BME280;48556;51.972;4.624;2023-05-21T11:39:44;75593.19;;;-146.23;36.83
62508;BME280;48556;51.972;4.624;2023-05-21T11:42:09;75547.00;;;-146.23;36.09
62508;BME280;48556;51.972;4.624;2023-05-21T11:47:08;75500.81;;;-146.23;35.50
62508;BME280;48556;51.972;4.624;2023-05-21T11:49:35;75516.88;;;-146.23;36.05
62508;BME280;48556;51.972;4.624;2023-05-21T11:52:03;75488.78;;;-146.23;35.30
62508;BME280;48556;51.972;4.624;2023-05-21T11:54:30;75476.72;;;-146.23;35.11
62508;BME280;48556;51.972;4.624;2023-05-21T11:57:04;75436.56;;;-146.23;35.14
62508;BME280;48556;51.972;4.624;2023-05-21T11:59:31;75468.69;;;-146.23;35.42
62508;BME280;48556;51.972;4.624;2023-05-21T12:01:57;75502.81;;;-146.23;35.69
62508;BME280;48556;51.972;4.624;2023-05-21T12:04:28;75472.72;;;-146.23;35.59
62508;BME280;48556;51.972;4.624;2023-05-21T12:06:54;75440.59;;;-146.23;35.28
62508;BME280;48556;51.972;4.624;2023-05-21T12:09:23;75396.41;;;-146.23;34.78
62508;BME280;48556;51.972;4.624;2023-05-21T12:11:49;75394.41;;;-146.23;34.86
62508;BME280;48556;51.972;4.624;2023-05-21T12:14:16;75360.28;;;-146.23;34.54
62508;BME280;48556;51.972;4.624;2023-05-21T12:16:42;75396.41;;;-146.23;34.86
62508;BME280;48556;51.972;4.624;2023-05-21T12:19:08;75378.34;;;-146.23;34.51
62508;BME280;48556;51.972;4.624;2023-05-21T12:21:34;75414.47;;;-146.23;35.16
62508;BME280;48556;51.972;4.624;2023-05-21T12:24:00;75430.53;;;-146.23;35.59
62508;BME280;48556;51.972;4.624;2023-05-21T12:26:26;75336.19;;;-146.23;34.78
62508;BME280;48556;51.972;4.624;2023-05-21T12:28:55;75286.00;;;-146.23;34.30
62508;BME280;48556;51.972;4.624;2023-05-21T12:31:22;75261.91;;;-146.23;33.94
62508;BME280;48556;51.972;4.624;2023-05-21T12:33:50;75183.59;;;-146.23;33.11
62508;BME280;48556;51.972;4.624;2023-05-21T12:36:28;75239.81;;;-146.23;33.15
62508;BME280;48556;51.972;4.624;2023-05-21T12:38:54;75181.59;;;-146.23;32.79
62508;BME280;48556;51.972;4.624;2023-05-21T12:41:21;75161.50;;;-146.23;32.66
62508;BME280;48556;51.972;4.624;2023-05-21T12:43:49;75175.56;;;-146.23;33.18
62508;BME280;48556;51.972;4.624;2023-05-21T12:46:15;75171.56;;;-146.23;32.70
62508;BME280;48556;51.972;4.624;2023-05-21T12:48:53;75131.41;;;-146.23;32.43
62508;BME280;48556;51.972;4.624;2023-05-21T12:51:20;75047.09;;;-146.23;32.22
62508;BME280;48556;51.972;4.624;2023-05-21T12:53:46;74998.91;;;-146.23;31.63
62508;BME280;48556;51.972;4.624;2023-05-21T12:56:14;74958.75;;;-146.23;31.17
62508;BME280;48556;51.972;4.624;2023-05-21T12:58:41;74818.22;;;-146.23;30.53
62508;BME280;48556;51.972;4.624;2023-05-21T13:01:10;74820.22;;;-146.23;30.19
62508;BME280;48556;51.972;4.624;2023-05-21T13:03:36;74806.19;;;-146.23;29.98
62508;BME280;48556;51.972;4.624;2023-05-21T13:06:05;74721.88;;;-146.23;29.60
62508;BME280;48556;51.972;4.624;2023-05-21T13:08:31;74802.16;;;-146.23;29.73